Siirt, Turkey

1:37 PM +03 on December 07, 2016 (GMT +0300)
Batman Air Base | | Change Station

Elev 1821 ft 37.93 °N, 41.12 °E | Updated 17 minutes ago

Clear
Clear
43 °F
Feels Like 41 °F
N
4
Wind Variable Wind from South

Today
High -- | Low -- °F
--% Chance of Precip.
Yesterday
High -- | Low -- °F
Precip. -- in
Pressure 30.21 in
Visibility -9999.0 miles
Clouds
Windchill 41 °F
Dew Point 25 °F
Humidity 49%
Rainfall 0.00 in
Snow Depth Not available.
7:14 AM 4:52 PM
Waxing Crescent, 51% visible
METAR LTCJ 071020Z 18003KT 100V270 CAVOK 06/M04 Q1023 RMK RWY20 VRB02KT
Pressure 30.21 in
Visibility -9999.0 miles
Clouds
Windchill 41 °F
Dew Point 25 °F
Humidity 49%
Rainfall 0.00 in
Snow Depth Not available.
7:14 AM 4:52 PM
Waxing Crescent, 51% visible
METAR LTCJ 071020Z 18003KT 100V270 CAVOK 06/M04 Q1023 RMK RWY20 VRB02KT

10-Day Weather Forecast

×

Almanac

Astronomy

Dec. 07, 2016 Rise Set
Actual Time
Civil Twilight
Nautical Twilight
Astronomical Twilight
Moon
Length of Visible Light
Length of Day
Tomorrow will be .
, % of the Moon is Illuminated

Today's Extremes

Country Highs Country Lows

Community

WunderPhotos

Upload Photos

1,956,111 photos uploaded!

WunderBlog® & News

Nearby

Air Quality

  Air Quality AQ Index Pollutant
Not available.

Snow Depth

Station Depth Elevation

Earthquake Activity

City Distance Mag. Time & Date
Minimum magnitude displayed is 2.5.

Coastal Water Temperatures

Place Temperature

Stations

Nearby Weather Stations

Station Location Temp. Windchill Dew Point Humidity Wind Precip. Elev Updated Type